sensor_id;sensor_type;location;lat;lon;timestamp;temperature;humidity
76759;DHT22;65701;45.588;5.186;2023-06-26T04:54:45;21.77;70.32
76759;DHT22;65701;45.588;5.186;2023-06-26T04:57:10;21.87;70.36
76759;DHT22;65701;45.588;5.186;2023-06-26T04:59:37;21.98;70.19
76759;DHT22;65701;45.588;5.186;2023-06-26T05:02:03;22.12;70.32
76759;DHT22;65701;45.588;5.186;2023-06-26T05:04:30;22.25;70.30
76759;DHT22;65701;45.588;5.186;2023-06-26T05:06:55;22.36;70.35
76759;DHT22;65701;45.588;5.186;2023-06-26T05:09:21;22.49;70.29
76759;DHT22;65701;45.588;5.186;2023-06-26T05:11:46;22.64;70.12
76759;DHT22;65701;45.588;5.186;2023-06-26T05:14:12;22.78;70.42
76759;DHT22;65701;45.588;5.186;2023-06-26T05:16:38;22.92;70.45
76759;DHT22;65701;45.588;5.186;2023-06-26T05:19:04;23.04;70.16
76759;DHT22;65701;45.588;5.186;2023-06-26T05:21:29;23.19;69.94
76759;DHT22;65701;45.588;5.186;2023-06-26T05:23:57;23.33;69.85
76759;DHT22;65701;45.588;5.186;2023-06-26T05:26:24;23.49;69.59
76759;DHT22;65701;45.588;5.186;2023-06-26T05:28:49;23.60;69.15
76759;DHT22;65701;45.588;5.186;2023-06-26T05:31:15;23.77;68.22
76759;DHT22;65701;45.588;5.186;2023-06-26T05:33:43;23.88;67.95
76759;DHT22;65701;45.588;5.186;2023-06-26T05:36:12;24.02;67.57
76759;DHT22;65701;45.588;5.186;2023-06-26T05:38:38;24.15;67.49
76759;DHT22;65701;45.588;5.186;2023-06-26T05:41:03;24.29;66.85
76759;DHT22;65701;45.588;5.186;2023-06-26T05:43:29;24.43;66.72
76759;DHT22;65701;45.588;5.186;2023-06-26T05:45:55;24.57;66.36
76759;DHT22;65701;45.588;5.186;2023-06-26T05:48:21;24.67;66.47
76759;DHT22;65701;45.588;5.186;2023-06-26T05:50:47;24.83;65.83
76759;DHT22;65701;45.588;5.186;2023-06-26T05:53:12;24.91;65.78
76759;DHT22;65701;45.588;5.186;2023-06-26T05:55:38;25.04;65.80
76759;DHT22;65701;45.588;5.186;2023-06-26T05:58:06;25.15;65.77
76759;DHT22;65701;45.588;5.186;2023-06-26T06:00:32;25.25;65.03
76759;DHT22;65701;45.588;5.186;2023-06-26T06:02:58;25.34;64.96
76759;DHT22;65701;45.588;5.186;2023-06-26T06:05:23;25.39;64.58
76759;DHT22;65701;45.588;5.186;2023-06-26T06:07:49;25.52;63.86
76759;DHT22;65701;45.588;5.186;2023-06-26T06:10:15;25.58;64.21
76759;DHT22;65701;45.588;5.186;2023-06-26T06:12:40;25.65;63.85
76759;DHT22;65701;45.588;5.186;2023-06-26T06:15:06;25.71;63.32
76759;DHT22;65701;45.588;5.186;2023-06-26T06:17:32;25.79;63.34
76759;DHT22;65701;45.588;5.186;2023-06-26T06:19:57;25.81;62.81
76759;DHT22;65701;45.588;5.186;2023-06-26T06:22:23;25.84;62.46
76759;DHT22;65701;45.588;5.186;2023-06-26T06:24:50;25.91;62.58
76759;DHT22;65701;45.588;5.186;2023-06-26T06:27:16;26.02;62.42
76759;DHT22;65701;45.588;5.186;2023-06-26T06:29:41;26.07;62.11
76759;DHT22;65701;45.588;5.186;2023-06-26T06:32:07;26.15;61.94
76759;DHT22;65701;45.588;5.186;2023-06-26T06:34:32;26.20;62.14
76759;DHT22;65701;45.588;5.186;2023-06-26T06:36:58;26.24;61.82
76759;DHT22;65701;45.588;5.186;2023-06-26T06:39:23;26.38;61.63
76759;DHT22;65701;45.588;5.186;2023-06-26T06:41:48;26.46;61.40
76759;DHT22;65701;45.588;5.186;2023-06-26T06:44:14;26.48;61.28
76759;DHT22;65701;45.588;5.186;2023-06-26T06:46:39;26.48;60.91
76759;DHT22;65701;45.588;5.186;2023-06-26T06:49:05;26.55;60.94
76759;DHT22;65701;45.588;5.186;2023-06-26T06:51:30;26.56;60.70
76759;DHT22;65701;45.588;5.186;2023-06-26T06:53:56;26.70;60.97
76759;DHT22;65701;45.588;5.186;2023-06-26T06:56:21;26.73;60.70
76759;DHT22;65701;45.588;5.186;2023-06-26T06:58:47;26.80;60.73
76759;DHT22;65701;45.588;5.186;2023-06-26T07:01:13;26.89;60.72
76759;DHT22;65701;45.588;5.186;2023-06-26T07:03:39;26.90;60.63
76759;DHT22;65701;45.588;5.186;2023-06-26T07:06:04;27.03;60.25
76759;DHT22;65701;45.588;5.186;2023-06-26T07:08:30;27.01;60.05
76759;DHT22;65701;45.588;5.186;2023-06-26T07:10:55;26.98;60.01
76759;DHT22;65701;45.588;5.186;2023-06-26T07:13:24;27.04;59.76
76759;DHT22;65701;45.588;5.186;2023-06-26T07:15:50;27.17;59.70
76759;DHT22;65701;45.588;5.186;2023-06-26T07:18:16;27.14;60.15
76759;DHT22;65701;45.588;5.186;2023-06-26T07:20:41;27.24;59.97
76759;DHT22;65701;45.588;5.186;2023-06-26T07:23:07;27.39;59.79
76759;DHT22;65701;45.588;5.186;2023-06-26T07:25:33;27.51;59.73
76759;DHT22;65701;45.588;5.186;2023-06-26T07:27:58;27.59;59.66
76759;DHT22;65701;45.588;5.186;2023-06-26T07:30:25;27.67;59.34
76759;DHT22;65701;45.588;5.186;2023-06-26T07:32:51;27.61;59.07
76759;DHT22;65701;45.588;5.186;2023-06-26T07:35:16;27.62;58.60
76759;DHT22;65701;45.588;5.186;2023-06-26T07:37:42;27.62;58.40
76759;DHT22;65701;45.588;5.186;2023-06-26T07:40:08;27.83;58.92
76759;DHT22;65701;45.588;5.186;2023-06-26T07:42:34;27.87;58.59
76759;DHT22;65701;45.588;5.186;2023-06-26T07:44:59;27.87;58.29
76759;DHT22;65701;45.588;5.186;2023-06-26T07:47:25;27.98;58.53
76759;DHT22;65701;45.588;5.186;2023-06-26T07:49:51;28.11;58.49
76759;DHT22;65701;45.588;5.186;2023-06-26T07:52:18;28.18;58.09
76759;DHT22;65701;45.588;5.186;2023-06-26T07:54:43;28.25;58.14
76759;DHT22;65701;45.588;5.186;2023-06-26T07:57:09;28.31;57.95
76759;DHT22;65701;45.588;5.186;2023-06-26T07:59:36;28.31;57.76
76759;DHT22;65701;45.588;5.186;2023-06-26T08:02:02;28.40;57.22
76759;DHT22;65701;45.588;5.186;2023-06-26T08:04:29;28.52;56.80
76759;DHT22;65701;45.588;5.186;2023-06-26T08:06:59;28.53;56.41
76759;DHT22;65701;45.588;5.186;2023-06-26T08:09:26;28.53;55.91
76759;DHT22;65701;45.588;5.186;2023-06-26T08:11:53;28.53;55.97
76759;DHT22;65701;45.588;5.186;2023-06-26T08:14:19;28.61;55.67
76759;DHT22;65701;45.588;5.186;2023-06-26T08:16:44;28.66;55.52
76759;DHT22;65701;45.588;5.186;2023-06-26T08:19:11;28.79;55.31
76759;DHT22;65701;45.588;5.186;2023-06-26T08:21:37;28.86;55.38
76759;DHT22;65701;45.588;5.186;2023-06-26T08:24:02;28.88;55.45
76759;DHT22;65701;45.588;5.186;2023-06-26T08:26:28;28.96;55.45
76759;DHT22;65701;45.588;5.186;2023-06-26T08:28:54;29.14;55.88
76759;DHT22;65701;45.588;5.186;2023-06-26T08:31:19;29.33;55.89
76759;DHT22;65701;45.588;5.186;2023-06-26T08:33:46;29.18;55.07
76759;DHT22;65701;45.588;5.186;2023-06-26T08:36:11;29.20;54.64
76759;DHT22;65701;45.588;5.186;2023-06-26T08:38:37;29.25;55.07
76759;DHT22;65701;45.588;5.186;2023-06-26T08:41:05;29.16;55.41
76759;DHT22;65701;45.588;5.186;2023-06-26T08:43:31;29.25;55.34
76759;DHT22;65701;45.588;5.186;2023-06-26T08:45:57;29.35;54.99
76759;DHT22;65701;45.588;5.186;2023-06-26T08:48:24;29.31;54.82
76759;DHT22;65701;45.588;5.186;2023-06-26T08:50:52;29.27;54.28
76759;DHT22;65701;45.588;5.186;2023-06-26T08:55:57;29.21;53.55
76759;DHT22;65701;45.588;5.186;2023-06-26T08:58:23;29.18;53.20
76759;DHT22;65701;45.588;5.186;2023-06-26T09:00:49;29.30;53.65
76759;DHT22;65701;45.588;5.186;2023-06-26T09:03:15;29.47;53.81
76759;DHT22;65701;45.588;5.186;2023-06-26T09:05:40;29.58;54.05
76759;DHT22;65701;45.588;5.186;2023-06-26T09:08:07;29.62;53.83
76759;DHT22;65701;45.588;5.186;2023-06-26T09:10:33;29.55;53.31
76759;DHT22;65701;45.588;5.186;2023-06-26T09:12:58;29.65;53.95
76759;DHT22;65701;45.588;5.186;2023-06-26T09:15:26;29.71;53.83
76759;DHT22;65701;45.588;5.186;2023-06-26T09:17:56;29.76;53.64
76759;DHT22;65701;45.588;5.186;2023-06-26T09:20:22;29.68;53.34
76759;DHT22;65701;45.588;5.186;2023-06-26T09:22:48;29.90;53.66
76759;DHT22;65701;45.588;5.186;2023-06-26T09:25:14;29.88;53.55
76759;DHT22;65701;45.588;5.186;2023-06-26T09:27:40;29.96;53.19
76759;DHT22;65701;45.588;5.186;2023-06-26T09:30:08;30.02;53.11
76759;DHT22;65701;45.588;5.186;2023-06-26T09:32:36;30.10;53.43
76759;DHT22;65701;45.588;5.186;2023-06-26T09:35:03;30.05;53.10
76759;DHT22;65701;45.588;5.186;2023-06-26T09:37:29;30.24;53.31
76759;DHT22;65701;45.588;5.186;2023-06-26T09:39:54;30.30;53.24
76759;DHT22;65701;45.588;5.186;2023-06-26T09:42:20;30.25;52.64
76759;DHT22;65701;45.588;5.186;2023-06-26T09:44:48;30.28;52.56
76759;DHT22;65701;45.588;5.186;2023-06-26T09:47:19;30.33;53.13
76759;DHT22;65701;45.588;5.186;2023-06-26T09:49:45;30.33;53.05
76759;DHT22;65701;45.588;5.186;2023-06-26T09:52:18;30.33;52.62
76759;DHT22;65701;45.588;5.186;2023-06-26T09:54:45;30.31;52.37
76759;DHT22;65701;45.588;5.186;2023-06-26T09:57:16;30.23;52.14
76759;DHT22;65701;45.588;5.186;2023-06-26T09:59:43;30.31;52.74
76759;DHT22;65701;45.588;5.186;2023-06-26T10:02:10;30.30;52.90
76759;DHT22;65701;45.588;5.186;2023-06-26T10:04:37;30.45;53.59
76759;DHT22;65701;45.588;5.186;2023-06-26T10:07:05;30.48;52.81
76759;DHT22;65701;45.588;5.186;2023-06-26T10:09:32;30.54;52.82
76759;DHT22;65701;45.588;5.186;2023-06-26T10:12:03;30.51;52.27
76759;DHT22;65701;45.588;5.186;2023-06-26T10:14:37;30.37;51.88
76759;DHT22;65701;45.588;5.186;2023-06-26T10:17:06;30.52;52.58
76759;DHT22;65701;45.588;5.186;2023-06-26T10:19:33;30.40;51.80
76759;DHT22;65701;45.588;5.186;2023-06-26T10:22:00;30.24;51.92
76759;DHT22;65701;45.588;5.186;2023-06-26T10:24:29;30.41;52.43
76759;DHT22;65701;45.588;5.186;2023-06-26T10:27:03;30.43;52.43
76759;DHT22;65701;45.588;5.186;2023-06-26T10:29:30;30.43;52.31
76759;DHT22;65701;45.588;5.186;2023-06-26T10:31:57;30.41;51.78
76759;DHT22;65701;45.588;5.186;2023-06-26T10:34:24;30.40;52.01
76759;DHT22;65701;45.588;5.186;2023-06-26T10:37:00;30.45;51.73
76759;DHT22;65701;45.588;5.186;2023-06-26T10:39:51;30.54;51.59
76759;DHT22;65701;45.588;5.186;2023-06-26T10:42:34;30.34;50.79
76759;DHT22;65701;45.588;5.186;2023-06-26T10:45:09;30.31;51.40
76759;DHT22;65701;45.588;5.186;2023-06-26T10:47:36;30.43;51.71
76759;DHT22;65701;45.588;5.186;2023-06-26T10:53:07;30.38;51.93
76759;DHT22;65701;45.588;5.186;2023-06-26T10:55:33;30.54;52.06
76759;DHT22;65701;45.588;5.186;2023-06-26T10:58:01;30.49;52.09
76759;DHT22;65701;45.588;5.186;2023-06-26T11:00:28;30.52;52.56
76759;DHT22;65701;45.588;5.186;2023-06-26T11:02:54;30.57;52.31
76759;DHT22;65701;45.588;5.186;2023-06-26T11:05:24;30.47;52.27
76759;DHT22;65701;45.588;5.186;2023-06-26T11:08:07;30.35;52.24
76759;DHT22;65701;45.588;5.186;2023-06-26T11:13:16;30.35;52.14
76759;DHT22;65701;45.588;5.186;2023-06-26T11:15:43;30.33;52.39
76759;DHT22;65701;45.588;5.186;2023-06-26T11:18:10;30.38;52.35
76759;DHT22;65701;45.588;5.186;2023-06-26T11:20:36;30.44;52.63
76759;DHT22;65701;45.588;5.186;2023-06-26T11:23:03;30.62;53.14
76759;DHT22;65701;45.588;5.186;2023-06-26T11:25:29;30.61;52.63
76759;DHT22;65701;45.588;5.186;2023-06-26T11:27:55;30.68;52.44
76759;DHT22;65701;45.588;5.186;2023-06-26T11:30:25;30.76;52.82
76759;DHT22;65701;45.588;5.186;2023-06-26T11:32:51;30.71;52.96
76759;DHT22;65701;45.588;5.186;2023-06-26T11:35:24;30.47;52.66
76759;DHT22;65701;45.588;5.186;2023-06-26T11:38:04;30.51;52.58
76759;DHT22;65701;45.588;5.186;2023-06-26T11:40:34;30.57;52.49
76759;DHT22;65701;45.588;5.186;2023-06-26T11:43:01;30.51;52.19
76759;DHT22;65701;45.588;5.186;2023-06-26T11:45:33;30.41;51.45
76759;DHT22;65701;45.588;5.186;2023-06-26T11:48:00;30.33;51.50
76759;DHT22;65701;45.588;5.186;2023-06-26T11:50:26;30.21;51.83
76759;DHT22;65701;45.588;5.186;2023-06-26T11:52:59;30.21;51.57
76759;DHT22;65701;45.588;5.186;2023-06-26T11:55:25;30.14;51.49
76759;DHT22;65701;45.588;5.186;2023-06-26T11:57:56;30.16;51.85
76759;DHT22;65701;45.588;5.186;2023-06-26T12:00:22;30.20;51.96
76759;DHT22;65701;45.588;5.186;2023-06-26T12:02:48;30.25;51.55
76759;DHT22;65701;45.588;5.186;2023-06-26T12:05:16;30.30;52.01
76759;DHT22;65701;45.588;5.186;2023-06-26T12:07:47;30.43;52.23
76759;DHT22;65701;45.588;5.186;2023-06-26T12:10:14;30.51;51.86
76759;DHT22;65701;45.588;5.186;2023-06-26T12:12:40;30.45;51.23
76759;DHT22;65701;45.588;5.186;2023-06-26T12:15:07;30.45;51.37
76759;DHT22;65701;45.588;5.186;2023-06-26T12:17:38;30.48;51.32
76759;DHT22;65701;45.588;5.186;2023-06-26T12:20:16;30.48;51.36
76759;DHT22;65701;45.588;5.186;2023-06-26T12:22:42;30.60;51.63
76759;DHT22;65701;45.588;5.186;2023-06-26T12:25:08;30.51;50.99
76759;DHT22;65701;45.588;5.186;2023-06-26T12:27:35;30.60;51.62
76759;DHT22;65701;45.588;5.186;2023-06-26T12:30:03;30.52;51.33
76759;DHT22;65701;45.588;5.186;2023-06-26T12:32:29;30.38;51.01
76759;DHT22;65701;45.588;5.186;2023-06-26T12:34:56;30.44;50.58
76759;DHT22;65701;45.588;5.186;2023-06-26T12:37:23;30.45;50.08
76759;DHT22;65701;45.588;5.186;2023-06-26T12:39:53;30.54;50.72
76759;DHT22;65701;45.588;5.186;2023-06-26T12:42:21;30.58;50.85
76759;DHT22;65701;45.588;5.186;2023-06-26T12:44:48;30.67;51.14
76759;DHT22;65701;45.588;5.186;2023-06-26T12:47:19;30.69;50.64
76759;DHT22;65701;45.588;5.186;2023-06-26T12:49:50;30.64;50.25
76759;DHT22;65701;45.588;5.186;2023-06-26T12:52:17;30.64;50.09
76759;DHT22;65701;45.588;5.186;2023-06-26T12:54:47;30.51;49.88
76759;DHT22;65701;45.588;5.186;2023-06-26T12:57:16;30.51;49.48
76759;DHT22;65701;45.588;5.186;2023-06-26T12:59:42;30.55;49.57
76759;DHT22;65701;45.588;5.186;2023-06-26T13:02:09;30.57;49.77
76759;DHT22;65701;45.588;5.186;2023-06-26T13:04:37;30.69;49.65
76759;DHT22;65701;45.588;5.186;2023-06-26T13:07:05;30.71;49.16
76759;DHT22;65701;45.588;5.186;2023-06-26T13:09:32;30.80;49.17
76759;DHT22;65701;45.588;5.186;2023-06-26T13:11:58;30.75;48.94
76759;DHT22;65701;45.588;5.186;2023-06-26T13:14:24;30.75;48.87
76759;DHT22;65701;45.588;5.186;2023-06-26T13:16:50;30.69;48.98
76759;DHT22;65701;45.588;5.186;2023-06-26T13:19:16;30.74;49.11
76759;DHT22;65701;45.588;5.186;2023-06-26T13:21:41;30.65;48.42
76759;DHT22;65701;45.588;5.186;2023-06-26T13:24:07;30.69;47.81
76759;DHT22;65701;45.588;5.186;2023-06-26T13:26:33;30.54;47.32
76759;DHT22;65701;45.588;5.186;2023-06-26T13:28:58;30.57;48.13
76759;DHT22;65701;45.588;5.186;2023-06-26T13:31:24;30.52;48.13
76759;DHT22;65701;45.588;5.186;2023-06-26T13:33:50;30.48;48.51
76759;DHT22;65701;45.588;5.186;2023-06-26T13:36:17;30.52;48.85
76759;DHT22;65701;45.588;5.186;2023-06-26T13:38:43;30.57;49.12
76759;DHT22;65701;45.588;5.186;2023-06-26T13:41:08;30.60;49.49
76759;DHT22;65701;45.588;5.186;2023-06-26T13:43:34;30.49;48.77
76759;DHT22;65701;45.588;5.186;2023-06-26T13:46:00;30.45;48.39
76759;DHT22;65701;45.588;5.186;2023-06-26T13:48:26;30.48;48.37
76759;DHT22;65701;45.588;5.186;2023-06-26T13:50:52;30.45;48.60
76759;DHT22;65701;45.588;5.186;2023-06-26T13:53:18;30.48;48.80
76759;DHT22;65701;45.588;5.186;2023-06-26T13:55:43;30.55;49.41
76759;DHT22;65701;45.588;5.186;2023-06-26T13:58:10;30.57;49.81
76759;DHT22;65701;45.588;5.186;2023-06-26T14:00:36;30.61;49.70
76759;DHT22;65701;45.588;5.186;2023-06-26T14:03:05;30.61;49.31
76759;DHT22;65701;45.588;5.186;2023-06-26T14:05:35;30.64;49.43
76759;DHT22;65701;45.588;5.186;2023-06-26T14:08:05;30.64;49.52
76759;DHT22;65701;45.588;5.186;2023-06-26T14:10:31;30.65;49.55
76759;DHT22;65701;45.588;5.186;2023-06-26T14:12:59;30.65;49.33
76759;DHT22;65701;45.588;5.186;2023-06-26T14:15:25;30.62;49.08
76759;DHT22;65701;45.588;5.186;2023-06-26T14:17:50;30.64;49.17
76759;DHT22;65701;45.588;5.186;2023-06-26T14:20:17;30.58;49.47
76759;DHT22;65701;45.588;5.186;2023-06-26T14:22:43;30.62;49.27
76759;DHT22;65701;45.588;5.186;2023-06-26T14:25:10;30.51;48.96
76759;DHT22;65701;45.588;5.186;2023-06-26T14:27:36;30.54;49.11
76759;DHT22;65701;45.588;5.186;2023-06-26T14:30:03;30.58;49.33
76759;DHT22;65701;45.588;5.186;2023-06-26T14:32:29;30.58;49.31
76759;DHT22;65701;45.588;5.186;2023-06-26T14:34:55;30.60;48.89
76759;DHT22;65701;45.588;5.186;2023-06-26T14:37:21;30.57;49.35
76759;DHT22;65701;45.588;5.186;2023-06-26T14:39:47;30.55;49.40
76759;DHT22;65701;45.588;5.186;2023-06-26T14:42:12;30.49;49.31
76759;DHT22;65701;45.588;5.186;2023-06-26T14:44:38;30.35;49.59
76759;DHT22;65701;45.588;5.186;2023-06-26T14:47:04;30.41;49.29
76759;DHT22;65701;45.588;5.186;2023-06-26T14:49:30;30.27;49.05
76759;DHT22;65701;45.588;5.186;2023-06-26T14:51:56;30.27;48.79
76759;DHT22;65701;45.588;5.186;2023-06-26T14:54:21;30.30;48.90
76759;DHT22;65701;45.588;5.186;2023-06-26T14:56:47;30.21;48.89
76759;DHT22;65701;45.588;5.186;2023-06-26T14:59:12;30.20;48.73
76759;DHT22;65701;45.588;5.186;2023-06-26T15:01:38;30.17;48.90
76759;DHT22;65701;45.588;5.186;2023-06-26T15:04:05;30.12;48.47
76759;DHT22;65701;45.588;5.186;2023-06-26T15:06:30;29.97;48.36
76759;DHT22;65701;45.588;5.186;2023-06-26T15:08:56;30.02;48.15
76759;DHT22;65701;45.588;5.186;2023-06-26T15:11:21;29.97;47.99
76759;DHT22;65701;45.588;5.186;2023-06-26T15:13:47;30.05;48.03
76759;DHT22;65701;45.588;5.186;2023-06-26T15:16:13;30.00;47.84
76759;DHT22;65701;45.588;5.186;2023-06-26T15:18:38;30.02;48.17
76759;DHT22;65701;45.588;5.186;2023-06-26T15:21:04;30.03;48.25
76759;DHT22;65701;45.588;5.186;2023-06-26T15:23:29;29.97;48.31
76759;DHT22;65701;45.588;5.186;2023-06-26T15:25:55;29.93;48.51
76759;DHT22;65701;45.588;5.186;2023-06-26T15:28:21;29.99;48.82
76759;DHT22;65701;45.588;5.186;2023-06-26T15:30:47;30.06;48.97
76759;DHT22;65701;45.588;5.186;2023-06-26T15:33:13;30.03;48.87
76759;DHT22;65701;45.588;5.186;2023-06-26T15:35:38;30.03;49.20
76759;DHT22;65701;45.588;5.186;2023-06-26T15:38:04;29.95;49.11
76759;DHT22;65701;45.588;5.186;2023-06-26T15:40:30;29.93;49.00
76759;DHT22;65701;45.588;5.186;2023-06-26T15:42:55;29.86;48.90
76759;DHT22;65701;45.588;5.186;2023-06-26T15:45:22;29.82;48.88
76759;DHT22;65701;45.588;5.186;2023-06-26T15:47:49;29.83;49.16
76759;DHT22;65701;45.588;5.186;2023-06-26T15:50:15;29.78;49.42
76759;DHT22;65701;45.588;5.186;2023-06-26T15:52:41;29.66;48.96
76759;DHT22;65701;45.588;5.186;2023-06-26T15:55:07;29.63;48.61
76759;DHT22;65701;45.588;5.186;2023-06-26T15:57:35;29.62;48.54
76759;DHT22;65701;45.588;5.186;2023-06-26T16:00:00;29.54;48.77
76759;DHT22;65701;45.588;5.186;2023-06-26T16:02:26;29.39;48.54
76759;DHT22;65701;45.588;5.186;2023-06-26T16:04:52;29.42;48.82
76759;DHT22;65701;45.588;5.186;2023-06-26T16:07:17;29.42;49.33
76759;DHT22;65701;45.588;5.186;2023-06-26T16:09:43;29.47;49.28
76759;DHT22;65701;45.588;5.186;2023-06-26T16:12:08;29.41;49.36
76759;DHT22;65701;45.588;5.186;2023-06-26T16:14:34;29.42;49.35
76759;DHT22;65701;45.588;5.186;2023-06-26T16:16:59;29.39;49.13
76759;DHT22;65701;45.588;5.186;2023-06-26T16:19:26;29.39;49.36
76759;DHT22;65701;45.588;5.186;2023-06-26T16:21:52;29.34;49.38
76759;DHT22;65701;45.588;5.186;2023-06-26T16:24:17;29.37;49.34
76759;DHT22;65701;45.588;5.186;2023-06-26T16:26:43;29.31;49.43
76759;DHT22;65701;45.588;5.186;2023-06-26T16:29:08;29.25;49.53
76759;DHT22;65701;45.588;5.186;2023-06-26T16:31:34;29.20;49.47
76759;DHT22;65701;45.588;5.186;2023-06-26T16:34:02;29.17;49.30
76759;DHT22;65701;45.588;5.186;2023-06-26T16:36:31;29.16;49.56
76759;DHT22;65701;45.588;5.186;2023-06-26T16:38:57;29.20;49.88
76759;DHT22;65701;45.588;5.186;2023-06-26T16:41:23;29.23;49.72
76759;DHT22;65701;45.588;5.186;2023-06-26T16:43:49;29.17;49.46
76759;DHT22;65701;45.588;5.186;2023-06-26T16:46:15;29.14;49.42
76759;DHT22;65701;45.588;5.186;2023-06-26T16:48:40;29.08;49.52
76759;DHT22;65701;45.588;5.186;2023-06-26T16:51:06;29.08;49.52
76759;DHT22;65701;45.588;5.186;2023-06-26T16:53:31;29.11;49.77
76759;DHT22;65701;45.588;5.186;2023-06-26T16:55:57;29.08;49.92
76759;DHT22;65701;45.588;5.186;2023-06-26T16:58:22;28.80;49.76
76759;DHT22;65701;45.588;5.186;2023-06-26T17:00:48;28.95;49.92
76759;DHT22;65701;45.588;5.186;2023-06-26T17:03:14;28.95;50.17
76759;DHT22;65701;45.588;5.186;2023-06-26T17:05:39;28.82;50.14
76759;DHT22;65701;45.588;5.186;2023-06-26T17:08:05;28.84;50.00
76759;DHT22;65701;45.588;5.186;2023-06-26T17:10:32;28.78;50.10
76759;DHT22;65701;45.588;5.186;2023-06-26T17:12:58;28.78;50.26
76759;DHT22;65701;45.588;5.186;2023-06-26T17:15:23;28.76;50.45
76759;DHT22;65701;45.588;5.186;2023-06-26T17:17:49;28.62;50.30
76759;DHT22;65701;45.588;5.186;2023-06-26T17:20:17;28.62;50.38
76759;DHT22;65701;45.588;5.186;2023-06-26T17:22:45;28.62;50.45
76759;DHT22;65701;45.588;5.186;2023-06-26T17:25:13;28.56;50.47
76759;DHT22;65701;45.588;5.186;2023-06-26T17:27:39;28.45;50.41
76759;DHT22;65701;45.588;5.186;2023-06-26T17:30:05;28.47;50.49
76759;DHT22;65701;45.588;5.186;2023-06-26T17:32:31;28.42;50.60
76759;DHT22;65701;45.588;5.186;2023-06-26T17:34:57;28.41;50.86
76759;DHT22;65701;45.588;5.186;2023-06-26T17:37:22;28.41;51.17
76759;DHT22;65701;45.588;5.186;2023-06-26T17:39:49;28.35;51.31
76759;DHT22;65701;45.588;5.186;2023-06-26T17:42:15;28.37;51.27
76759;DHT22;65701;45.588;5.186;2023-06-26T17:44:41;28.31;51.22
76759;DHT22;65701;45.588;5.186;2023-06-26T17:47:07;28.29;51.18
76759;DHT22;65701;45.588;5.186;2023-06-26T17:49:32;28.21;51.06
76759;DHT22;65701;45.588;5.186;2023-06-26T17:51:59;28.20;51.13
76759;DHT22;65701;45.588;5.186;2023-06-26T17:54:29;28.21;51.33
76759;DHT22;65701;45.588;5.186;2023-06-26T17:56:55;28.21;51.22
76759;DHT22;65701;45.588;5.186;2023-06-26T17:59:20;28.17;51.07
76759;DHT22;65701;45.588;5.186;2023-06-26T18:01:45;28.17;50.98
76759;DHT22;65701;45.588;5.186;2023-06-26T18:04:11;28.13;51.02
76759;DHT22;65701;45.588;5.186;2023-06-26T18:06:37;28.03;50.75
76759;DHT22;65701;45.588;5.186;2023-06-26T18:09:03;28.07;50.81
76759;DHT22;65701;45.588;5.186;2023-06-26T18:11:33;28.00;50.84
76759;DHT22;65701;45.588;5.186;2023-06-26T18:14:01;27.98;50.83
76759;DHT22;65701;45.588;5.186;2023-06-26T18:16:27;27.97;50.78
76759;DHT22;65701;45.588;5.186;2023-06-26T18:18:53;27.97;50.96
76759;DHT22;65701;45.588;5.186;2023-06-26T18:21:19;27.93;50.97
76759;DHT22;65701;45.588;5.186;2023-06-26T18:24:02;27.90;50.86
76759;DHT22;65701;45.588;5.186;2023-06-26T18:26:34;27.87;50.86
76759;DHT22;65701;45.588;5.186;2023-06-26T18:29:02;27.73;50.96
76759;DHT22;65701;45.588;5.186;2023-06-26T18:31:27;27.69;50.77
76759;DHT22;65701;45.588;5.186;2023-06-26T18:33:56;27.61;50.86
76759;DHT22;65701;45.588;5.186;2023-06-26T18:36:22;27.61;50.87
76759;DHT22;65701;45.588;5.186;2023-06-26T18:38:48;27.55;50.95
76759;DHT22;65701;45.588;5.186;2023-06-26T18:41:16;27.52;50.99
76759;DHT22;65701;45.588;5.186;2023-06-26T18:43:55;27.48;51.05
76759;DHT22;65701;45.588;5.186;2023-06-26T18:46:21;27.49;51.09
76759;DHT22;65701;45.588;5.186;2023-06-26T18:49:02;27.45;51.20
76759;DHT22;65701;45.588;5.186;2023-06-26T18:51:32;27.41;51.33
76759;DHT22;65701;45.588;5.186;2023-06-26T18:53:58;27.37;51.28
76759;DHT22;65701;45.588;5.186;2023-06-26T18:56:28;27.28;51.34
76759;DHT22;65701;45.588;5.186;2023-06-26T18:58:53;27.28;51.42
76759;DHT22;65701;45.588;5.186;2023-06-26T19:01:19;27.21;51.58
76759;DHT22;65701;45.588;5.186;2023-06-26T19:03:45;27.17;51.61
76759;DHT22;65701;45.588;5.186;2023-06-26T19:06:11;27.01;51.70
76759;DHT22;65701;45.588;5.186;2023-06-26T19:08:37;27.04;51.88
76759;DHT22;65701;45.588;5.186;2023-06-26T19:11:02;26.97;52.00
76759;DHT22;65701;45.588;5.186;2023-06-26T19:13:28;26.90;52.06
76759;DHT22;65701;45.588;5.186;2023-06-26T19:15:56;26.87;52.15
76759;DHT22;65701;45.588;5.186;2023-06-26T19:18:21;26.83;52.25
76759;DHT22;65701;45.588;5.186;2023-06-26T19:20:47;26.78;52.32
76759;DHT22;65701;45.588;5.186;2023-06-26T19:23:12;26.75;52.51
76759;DHT22;65701;45.588;5.186;2023-06-26T19:25:38;26.66;52.58
76759;DHT22;65701;45.588;5.186;2023-06-26T19:28:03;26.62;52.56
76759;DHT22;65701;45.588;5.186;2023-06-26T19:30:29;26.53;52.63
76759;DHT22;65701;45.588;5.186;2023-06-26T19:32:57;26.45;52.72
76759;DHT22;65701;45.588;5.186;2023-06-26T19:35:23;26.41;52.87
76759;DHT22;65701;45.588;5.186;2023-06-26T19:37:49;26.36;52.96
76759;DHT22;65701;45.588;5.186;2023-06-26T19:40:14;26.28;53.09
76759;DHT22;65701;45.588;5.186;2023-06-26T19:42:40;26.26;53.15
76759;DHT22;65701;45.588;5.186;2023-06-26T19:45:06;26.22;53.14
76759;DHT22;65701;45.588;5.186;2023-06-26T19:47:32;26.18;53.21
76759;DHT22;65701;45.588;5.186;2023-06-26T19:49:58;26.13;53.34
76759;DHT22;65701;45.588;5.186;2023-06-26T19:52:49;26.08;53.43
76759;DHT22;65701;45.588;5.186;2023-06-26T19:55:15;26.08;53.55
76759;DHT22;65701;45.588;5.186;2023-06-26T19:57:45;25.98;53.61
76759;DHT22;65701;45.588;5.186;2023-06-26T20:00:11;25.96;53.88
76759;DHT22;65701;45.588;5.186;2023-06-26T20:02:37;25.91;53.87
76759;DHT22;65701;45.588;5.186;2023-06-26T20:05:03;25.86;53.88
76759;DHT22;65701;45.588;5.186;2023-06-26T20:07:29;25.79;54.01
76759;DHT22;65701;45.588;5.186;2023-06-26T20:09:54;25.76;54.14
76759;DHT22;65701;45.588;5.186;2023-06-26T20:12:20;25.70;54.22
76759;DHT22;65701;45.588;5.186;2023-06-26T20:14:50;25.66;54.22
76759;DHT22;65701;45.588;5.186;2023-06-26T20:17:16;25.58;54.46
76759;DHT22;65701;45.588;5.186;2023-06-26T20:19:42;25.53;54.40
76759;DHT22;65701;45.588;5.186;2023-06-26T20:22:07;25.47;54.42
76759;DHT22;65701;45.588;5.186;2023-06-26T20:24:33;25.49;54.41
76759;DHT22;65701;45.588;5.186;2023-06-26T20:27:03;25.39;54.55
76759;DHT22;65701;45.588;5.186;2023-06-26T20:29:29;25.32;54.60